sensor_id;sensor_type;location;lat;lon;timestamp;P1;durP1;ratioP1;P2;durP2;ratioP2
57615;SDS011;43816;52.054;-9.494;2023-04-09T00:00:07;6.40;;;2.90;;
57615;SDS011;43816;52.054;-9.494;2023-04-09T00:00:18;6.10;;;2.75;;
57615;SDS011;43816;52.054;-9.494;2023-04-09T00:00:28;5.63;;;2.60;;
57615;SDS011;43816;52.054;-9.494;2023-04-09T00:00:39;6.23;;;2.70;;
57615;SDS011;43816;52.054;-9.494;2023-04-09T00:00:49;5.78;;;2.63;;
57615;SDS011;43816;52.054;-9.494;2023-04-09T00:01:03;5.90;;;2.53;;
57615;SDS011;43816;52.054;-9.494;2023-04-09T00:01:17;5.45;;;2.53;;
57615;SDS011;43816;52.054;-9.494;2023-04-09T00:01:28;5.87;;;2.77;;
57615;SDS011;43816;52.054;-9.494;2023-04-09T00:01:38;5.90;;;2.80;;
57615;SDS011;43816;52.054;-9.494;2023-04-09T00:01:48;5.47;;;2.87;;
57615;SDS011;43816;52.054;-9.494;2023-04-09T00:01:58;5.50;;;3.00;;
57615;SDS011;43816;52.054;-9.494;2023-04-09T00:02:09;5.60;;;2.90;;
57615;SDS011;43816;52.054;-9.494;2023-04-09T00:02:19;6.30;;;2.90;;
57615;SDS011;43816;52.054;-9.494;2023-04-09T00:02:29;5.73;;;2.70;;
57615;SDS011;43816;52.054;-9.494;2023-04-09T00:02:39;5.47;;;2.57;;
57615;SDS011;43816;52.054;-9.494;2023-04-09T00:02:50;5.47;;;2.53;;
57615;SDS011;43816;52.054;-9.494;2023-04-09T00:03:00;6.10;;;2.67;;
57615;SDS011;43816;52.054;-9.494;2023-04-09T00:03:10;5.93;;;2.63;;
57615;SDS011;43816;52.054;-9.494;2023-04-09T00:03:21;5.72;;;2.63;;
57615;SDS011;43816;52.054;-9.494;2023-04-09T00:03:31;6.07;;;2.70;;
57615;SDS011;43816;52.054;-9.494;2023-04-09T00:03:42;6.70;;;2.78;;
57615;SDS011;43816;52.054;-9.494;2023-04-09T00:03:52;6.17;;;2.60;;
57615;SDS011;43816;52.054;-9.494;2023-04-09T00:04:03;5.57;;;2.53;;
57615;SDS011;43816;52.054;-9.494;2023-04-09T00:04:13;5.07;;;2.50;;
57615;SDS011;43816;52.054;-9.494;2023-04-09T00:04:23;5.03;;;2.47;;
57615;SDS011;43816;52.054;-9.494;2023-04-09T00:04:34;5.45;;;2.60;;
57615;SDS011;43816;52.054;-9.494;2023-04-09T00:04:44;5.73;;;2.70;;
57615;SDS011;43816;52.054;-9.494;2023-04-09T00:04:54;5.83;;;2.80;;
57615;SDS011;43816;52.054;-9.494;2023-04-09T00:05:04;4.70;;;2.63;;
57615;SDS011;43816;52.054;-9.494;2023-04-09T00:05:15;5.00;;;2.60;;
57615;SDS011;43816;52.054;-9.494;2023-04-09T00:05:25;5.72;;;2.70;;
57615;SDS011;43816;52.054;-9.494;2023-04-09T00:05:39;6.20;;;2.80;;
57615;SDS011;43816;52.054;-9.494;2023-04-09T00:05:49;5.57;;;2.47;;
57615;SDS011;43816;52.054;-9.494;2023-04-09T00:06:00;4.90;;;2.30;;
57615;SDS011;43816;52.054;-9.494;2023-04-09T00:06:10;4.22;;;2.30;;
57615;SDS011;43816;52.054;-9.494;2023-04-09T00:06:21;4.97;;;2.40;;
57615;SDS011;43816;52.054;-9.494;2023-04-09T00:06:31;5.10;;;2.40;;
57615;SDS011;43816;52.054;-9.494;2023-04-09T00:06:41;5.13;;;2.40;;
57615;SDS011;43816;52.054;-9.494;2023-04-09T00:06:51;5.23;;;2.30;;
57615;SDS011;43816;52.054;-9.494;2023-04-09T00:07:02;5.67;;;2.43;;
57615;SDS011;43816;52.054;-9.494;2023-04-09T00:07:12;5.80;;;2.50;;
57615;SDS011;43816;52.054;-9.494;2023-04-09T00:07:22;5.23;;;2.50;;
57615;SDS011;43816;52.054;-9.494;2023-04-09T00:07:33;4.93;;;2.50;;
57615;SDS011;43816;52.054;-9.494;2023-04-09T00:07:43;5.72;;;2.58;;
57615;SDS011;43816;52.054;-9.494;2023-04-09T00:07:53;5.90;;;2.57;;
57615;SDS011;43816;52.054;-9.494;2023-04-09T00:08:04;6.03;;;2.38;;
57615;SDS011;43816;52.054;-9.494;2023-04-09T00:08:14;5.27;;;2.43;;
57615;SDS011;43816;52.054;-9.494;2023-04-09T00:08:25;4.72;;;2.50;;
57615;SDS011;43816;52.054;-9.494;2023-04-09T00:08:35;4.33;;;2.60;;
57615;SDS011;43816;52.054;-9.494;2023-04-09T00:08:45;4.13;;;2.40;;
57615;SDS011;43816;52.054;-9.494;2023-04-09T00:08:56;3.60;;;2.27;;
57615;SDS011;43816;52.054;-9.494;2023-04-09T00:09:06;3.90;;;2.20;;
57615;SDS011;43816;52.054;-9.494;2023-04-09T00:09:16;3.70;;;2.10;;
57615;SDS011;43816;52.054;-9.494;2023-04-09T00:09:26;4.50;;;2.17;;
57615;SDS011;43816;52.054;-9.494;2023-04-09T00:09:37;4.38;;;2.10;;
57615;SDS011;43816;52.054;-9.494;2023-04-09T00:09:47;4.57;;;2.17;;
57615;SDS011;43816;52.054;-9.494;2023-04-09T00:09:57;4.43;;;2.10;;
57615;SDS011;43816;52.054;-9.494;2023-04-09T00:10:08;4.18;;;2.15;;
57615;SDS011;43816;52.054;-9.494;2023-04-09T00:10:18;4.50;;;2.27;;
57615;SDS011;43816;52.054;-9.494;2023-04-09T00:10:29;4.30;;;2.47;;
57615;SDS011;43816;52.054;-9.494;2023-04-09T00:10:39;4.53;;;2.50;;
57615;SDS011;43816;52.054;-9.494;2023-04-09T00:10:50;4.47;;;2.50;;
57615;SDS011;43816;52.054;-9.494;2023-04-09T00:11:01;4.57;;;2.30;;
57615;SDS011;43816;52.054;-9.494;2023-04-09T00:11:11;4.53;;;2.27;;
57615;SDS011;43816;52.054;-9.494;2023-04-09T00:11:21;4.30;;;2.30;;
57615;SDS011;43816;52.054;-9.494;2023-04-09T00:11:32;4.60;;;2.50;;
57615;SDS011;43816;52.054;-9.494;2023-04-09T00:11:42;4.80;;;2.40;;
57615;SDS011;43816;52.054;-9.494;2023-04-09T00:11:52;4.32;;;2.20;;
57615;SDS011;43816;52.054;-9.494;2023-04-09T00:12:02;4.10;;;2.10;;
57615;SDS011;43816;52.054;-9.494;2023-04-09T00:12:13;4.43;;;2.07;;
57615;SDS011;43816;52.054;-9.494;2023-04-09T00:12:23;5.13;;;2.20;;
57615;SDS011;43816;52.054;-9.494;2023-04-09T00:12:34;5.30;;;2.23;;
57615;SDS011;43816;52.054;-9.494;2023-04-09T00:12:44;5.13;;;2.20;;
57615;SDS011;43816;52.054;-9.494;2023-04-09T00:12:54;4.78;;;2.13;;
57615;SDS011;43816;52.054;-9.494;2023-04-09T00:13:04;4.53;;;2.10;;
57615;SDS011;43816;52.054;-9.494;2023-04-09T00:13:15;3.97;;;2.10;;
57615;SDS011;43816;52.054;-9.494;2023-04-09T00:13:26;4.20;;;2.10;;
57615;SDS011;43816;52.054;-9.494;2023-04-09T00:13:36;4.80;;;2.10;;
57615;SDS011;43816;52.054;-9.494;2023-04-09T00:13:46;4.77;;;2.07;;
57615;SDS011;43816;52.054;-9.494;2023-04-09T00:13:57;4.93;;;2.20;;
57615;SDS011;43816;52.054;-9.494;2023-04-09T00:14:07;4.38;;;2.13;;
57615;SDS011;43816;52.054;-9.494;2023-04-09T00:14:18;4.53;;;2.17;;
57615;SDS011;43816;52.054;-9.494;2023-04-09T00:14:28;4.90;;;2.20;;
57615;SDS011;43816;52.054;-9.494;2023-04-09T00:14:38;4.67;;;2.27;;
57615;SDS011;43816;52.054;-9.494;2023-04-09T00:14:49;4.83;;;2.30;;
57615;SDS011;43816;52.054;-9.494;2023-04-09T00:14:59;4.55;;;2.20;;
57615;SDS011;43816;52.054;-9.494;2023-04-09T00:15:09;5.57;;;2.30;;
57615;SDS011;43816;52.054;-9.494;2023-04-09T00:15:20;5.82;;;2.30;;
57615;SDS011;43816;52.054;-9.494;2023-04-09T00:15:30;5.03;;;2.13;;
57615;SDS011;43816;52.054;-9.494;2023-04-09T00:15:40;4.40;;;2.00;;
57615;SDS011;43816;52.054;-9.494;2023-04-09T00:15:51;4.25;;;2.00;;
57615;SDS011;43816;52.054;-9.494;2023-04-09T00:16:01;4.57;;;2.17;;
57615;SDS011;43816;52.054;-9.494;2023-04-09T00:16:11;4.60;;;2.27;;
57615;SDS011;43816;52.054;-9.494;2023-04-09T00:16:22;4.22;;;2.33;;
57615;SDS011;43816;52.054;-9.494;2023-04-09T00:16:32;4.20;;;2.23;;
57615;SDS011;43816;52.054;-9.494;2023-04-09T00:16:42;4.50;;;2.20;;
57615;SDS011;43816;52.054;-9.494;2023-04-09T00:16:52;4.80;;;2.25;;
57615;SDS011;43816;52.054;-9.494;2023-04-09T00:17:03;5.13;;;2.30;;
57615;SDS011;43816;52.054;-9.494;2023-04-09T00:17:13;4.37;;;2.10;;
57615;SDS011;43816;52.054;-9.494;2023-04-09T00:17:23;3.40;;;1.92;;
57615;SDS011;43816;52.054;-9.494;2023-04-09T00:17:34;3.80;;;2.10;;
57615;SDS011;43816;52.054;-9.494;2023-04-09T00:17:44;4.00;;;2.17;;
57615;SDS011;43816;52.054;-9.494;2023-04-09T00:17:54;4.30;;;2.20;;
57615;SDS011;43816;52.054;-9.494;2023-04-09T00:18:05;3.90;;;2.10;;
57615;SDS011;43816;52.054;-9.494;2023-04-09T00:18:15;4.27;;;2.10;;
57615;SDS011;43816;52.054;-9.494;2023-04-09T00:18:25;4.72;;;2.13;;
57615;SDS011;43816;52.054;-9.494;2023-04-09T00:18:35;4.57;;;2.13;;
57615;SDS011;43816;52.054;-9.494;2023-04-09T00:18:46;4.47;;;2.20;;
57615;SDS011;43816;52.054;-9.494;2023-04-09T00:18:56;4.35;;;2.25;;
57615;SDS011;43816;52.054;-9.494;2023-04-09T00:19:06;4.80;;;2.23;;
57615;SDS011;43816;52.054;-9.494;2023-04-09T00:19:17;4.23;;;2.20;;
57615;SDS011;43816;52.054;-9.494;2023-04-09T00:19:27;3.97;;;2.00;;
57615;SDS011;43816;52.054;-9.494;2023-04-09T00:19:37;3.25;;;1.85;;
57615;SDS011;43816;52.054;-9.494;2023-04-09T00:19:47;3.30;;;1.90;;
57615;SDS011;43816;52.054;-9.494;2023-04-09T00:19:58;3.13;;;1.90;;
57615;SDS011;43816;52.054;-9.494;2023-04-09T00:20:08;3.20;;;1.92;;
57615;SDS011;43816;52.054;-9.494;2023-04-09T00:20:19;3.43;;;1.90;;
57615;SDS011;43816;52.054;-9.494;2023-04-09T00:20:29;3.75;;;1.88;;
57615;SDS011;43816;52.054;-9.494;2023-04-09T00:20:39;4.43;;;1.93;;
57615;SDS011;43816;52.054;-9.494;2023-04-09T00:20:50;4.30;;;1.90;;
57615;SDS011;43816;52.054;-9.494;2023-04-09T00:21:00;5.03;;;2.22;;
57615;SDS011;43816;52.054;-9.494;2023-04-09T00:21:10;4.60;;;2.27;;
57615;SDS011;43816;52.054;-9.494;2023-04-09T00:21:20;4.73;;;2.30;;
57615;SDS011;43816;52.054;-9.494;2023-04-09T00:21:31;4.43;;;2.20;;
57615;SDS011;43816;52.054;-9.494;2023-04-09T00:21:41;4.23;;;2.13;;
57615;SDS011;43816;52.054;-9.494;2023-04-09T00:21:51;3.73;;;2.10;;
57615;SDS011;43816;52.054;-9.494;2023-04-09T00:22:02;3.55;;;2.00;;
57615;SDS011;43816;52.054;-9.494;2023-04-09T00:22:12;3.47;;;2.03;;
57615;SDS011;43816;52.054;-9.494;2023-04-09T00:22:22;3.57;;;2.10;;
57615;SDS011;43816;52.054;-9.494;2023-04-09T00:22:32;3.75;;;2.20;;
57615;SDS011;43816;52.054;-9.494;2023-04-09T00:22:43;5.40;;;2.30;;
57615;SDS011;43816;52.054;-9.494;2023-04-09T00:22:53;6.03;;;2.27;;
57615;SDS011;43816;52.054;-9.494;2023-04-09T00:23:03;5.68;;;2.25;;
57615;SDS011;43816;52.054;-9.494;2023-04-09T00:23:14;4.27;;;2.07;;
57615;SDS011;43816;52.054;-9.494;2023-04-09T00:23:24;3.70;;;2.10;;
57615;SDS011;43816;52.054;-9.494;2023-04-09T00:23:34;4.13;;;2.13;;
57615;SDS011;43816;52.054;-9.494;2023-04-09T00:23:45;4.13;;;2.20;;
57615;SDS011;43816;52.054;-9.494;2023-04-09T00:23:55;4.03;;;2.20;;
57615;SDS011;43816;52.054;-9.494;2023-04-09T00:24:05;3.43;;;2.00;;
57615;SDS011;43816;52.054;-9.494;2023-04-09T00:24:16;3.30;;;1.80;;
57615;SDS011;43816;52.054;-9.494;2023-04-09T00:24:26;3.60;;;1.80;;
57615;SDS011;43816;52.054;-9.494;2023-04-09T00:24:36;3.57;;;2.00;;
57615;SDS011;43816;52.054;-9.494;2023-04-09T00:24:46;4.30;;;2.30;;
57615;SDS011;43816;52.054;-9.494;2023-04-09T00:24:57;4.27;;;2.30;;
57615;SDS011;43816;52.054;-9.494;2023-04-09T00:25:07;5.30;;;2.20;;
57615;SDS011;43816;52.054;-9.494;2023-04-09T00:25:17;4.90;;;2.13;;
57615;SDS011;43816;52.054;-9.494;2023-04-09T00:25:28;5.13;;;2.27;;
57615;SDS011;43816;52.054;-9.494;2023-04-09T00:25:38;4.75;;;2.42;;
57615;SDS011;43816;52.054;-9.494;2023-04-09T00:25:49;5.07;;;2.30;;
57615;SDS011;43816;52.054;-9.494;2023-04-09T00:25:59;4.73;;;2.20;;
57615;SDS011;43816;52.054;-9.494;2023-04-09T00:26:09;4.45;;;2.00;;
57615;SDS011;43816;52.054;-9.494;2023-04-09T00:26:20;4.70;;;2.10;;
57615;SDS011;43816;52.054;-9.494;2023-04-09T00:26:30;4.78;;;2.17;;
57615;SDS011;43816;52.054;-9.494;2023-04-09T00:26:40;5.20;;;2.30;;
57615;SDS011;43816;52.054;-9.494;2023-04-09T00:26:51;5.33;;;2.33;;
57615;SDS011;43816;52.054;-9.494;2023-04-09T00:27:01;5.32;;;2.28;;
57615;SDS011;43816;52.054;-9.494;2023-04-09T00:27:11;5.43;;;2.30;;
57615;SDS011;43816;52.054;-9.494;2023-04-09T00:27:22;5.27;;;2.27;;
57615;SDS011;43816;52.054;-9.494;2023-04-09T00:27:32;5.35;;;2.30;;
57615;SDS011;43816;52.054;-9.494;2023-04-09T00:27:42;5.40;;;2.30;;
57615;SDS011;43816;52.054;-9.494;2023-04-09T00:27:53;5.87;;;2.40;;
57615;SDS011;43816;52.054;-9.494;2023-04-09T00:28:04;6.10;;;2.42;;
57615;SDS011;43816;52.054;-9.494;2023-04-09T00:28:14;5.97;;;2.37;;
57615;SDS011;43816;52.054;-9.494;2023-04-09T00:28:24;5.47;;;2.30;;
57615;SDS011;43816;52.054;-9.494;2023-04-09T00:28:34;5.63;;;2.27;;
57615;SDS011;43816;52.054;-9.494;2023-04-09T00:28:45;5.13;;;2.20;;
57615;SDS011;43816;52.054;-9.494;2023-04-09T00:28:55;5.30;;;2.10;;
57615;SDS011;43816;52.054;-9.494;2023-04-09T00:29:05;5.63;;;2.33;;
57615;SDS011;43816;52.054;-9.494;2023-04-09T00:29:16;5.50;;;2.38;;
57615;SDS011;43816;52.054;-9.494;2023-04-09T00:29:26;4.87;;;2.40;;
57615;SDS011;43816;52.054;-9.494;2023-04-09T00:29:36;4.40;;;2.27;;
57615;SDS011;43816;52.054;-9.494;2023-04-09T00:29:46;5.20;;;2.30;;
57615;SDS011;43816;52.054;-9.494;2023-04-09T00:29:57;5.73;;;2.30;;
57615;SDS011;43816;52.054;-9.494;2023-04-09T00:30:07;6.37;;;2.40;;
57615;SDS011;43816;52.054;-9.494;2023-04-09T00:30:18;6.05;;;2.60;;
57615;SDS011;43816;52.054;-9.494;2023-04-09T00:30:28;6.20;;;2.70;;
57615;SDS011;43816;52.054;-9.494;2023-04-09T00:30:39;5.28;;;2.55;;
57615;SDS011;43816;52.054;-9.494;2023-04-09T00:30:50;5.03;;;2.43;;
57615;SDS011;43816;52.054;-9.494;2023-04-09T00:31:00;4.77;;;2.40;;
57615;SDS011;43816;52.054;-9.494;2023-04-09T00:31:11;5.35;;;2.42;;
57615;SDS011;43816;52.054;-9.494;2023-04-09T00:31:21;5.72;;;2.40;;
57615;SDS011;43816;52.054;-9.494;2023-04-09T00:31:32;5.80;;;2.37;;
57615;SDS011;43816;52.054;-9.494;2023-04-09T00:31:42;4.80;;;2.20;;
57615;SDS011;43816;52.054;-9.494;2023-04-09T00:31:52;4.05;;;2.13;;
57615;SDS011;43816;52.054;-9.494;2023-04-09T00:32:02;4.37;;;2.17;;
57615;SDS011;43816;52.054;-9.494;2023-04-09T00:32:13;4.73;;;2.20;;
57615;SDS011;43816;52.054;-9.494;2023-04-09T00:32:23;6.10;;;2.35;;
57615;SDS011;43816;52.054;-9.494;2023-04-09T00:32:33;6.67;;;2.40;;
57615;SDS011;43816;52.054;-9.494;2023-04-09T00:32:44;7.47;;;2.47;;
57615;SDS011;43816;52.054;-9.494;2023-04-09T00:32:54;5.67;;;2.20;;
57615;SDS011;43816;52.054;-9.494;2023-04-09T00:33:04;4.57;;;2.00;;
57615;SDS011;43816;52.054;-9.494;2023-04-09T00:33:15;3.67;;;1.93;;
57615;SDS011;43816;52.054;-9.494;2023-04-09T00:33:25;4.38;;;2.33;;
57615;SDS011;43816;52.054;-9.494;2023-04-09T00:33:35;4.50;;;2.40;;
57615;SDS011;43816;52.054;-9.494;2023-04-09T00:33:45;5.23;;;2.40;;
57615;SDS011;43816;52.054;-9.494;2023-04-09T00:33:56;5.03;;;2.17;;
57615;SDS011;43816;52.054;-9.494;2023-04-09T00:34:06;5.07;;;2.20;;
57615;SDS011;43816;52.054;-9.494;2023-04-09T00:34:16;4.47;;;2.20;;
57615;SDS011;43816;52.054;-9.494;2023-04-09T00:34:26;5.07;;;2.40;;
57615;SDS011;43816;52.054;-9.494;2023-04-09T00:34:37;4.72;;;2.30;;
57615;SDS011;43816;52.054;-9.494;2023-04-09T00:34:47;4.40;;;2.20;;
57615;SDS011;43816;52.054;-9.494;2023-04-09T00:34:57;4.10;;;2.10;;
57615;SDS011;43816;52.054;-9.494;2023-04-09T00:35:08;5.40;;;2.28;;
57615;SDS011;43816;52.054;-9.494;2023-04-09T00:35:18;6.10;;;2.43;;
57615;SDS011;43816;52.054;-9.494;2023-04-09T00:35:29;6.70;;;2.50;;
57615;SDS011;43816;52.054;-9.494;2023-04-09T00:35:39;4.93;;;2.20;;
57615;SDS011;43816;52.054;-9.494;2023-04-09T00:35:49;5.00;;;2.27;;
57615;SDS011;43816;52.054;-9.494;2023-04-09T00:35:59;5.03;;;2.10;;
57615;SDS011;43816;52.054;-9.494;2023-04-09T00:36:10;5.23;;;2.20;;
57615;SDS011;43816;52.054;-9.494;2023-04-09T00:36:20;4.90;;;2.10;;
57615;SDS011;43816;52.054;-9.494;2023-04-09T00:36:30;4.40;;;2.20;;
57615;SDS011;43816;52.054;-9.494;2023-04-09T00:36:40;4.25;;;2.20;;
57615;SDS011;43816;52.054;-9.494;2023-04-09T00:36:51;4.77;;;2.23;;
57615;SDS011;43816;52.054;-9.494;2023-04-09T00:37:01;4.67;;;2.10;;
57615;SDS011;43816;52.054;-9.494;2023-04-09T00:37:11;4.38;;;2.10;;
57615;SDS011;43816;52.054;-9.494;2023-04-09T00:37:22;4.27;;;2.20;;
57615;SDS011;43816;52.054;-9.494;2023-04-09T00:37:32;4.37;;;2.20;;
57615;SDS011;43816;52.054;-9.494;2023-04-09T00:37:42;5.55;;;2.53;;
57615;SDS011;43816;52.054;-9.494;2023-04-09T00:37:53;5.50;;;2.60;;
57615;SDS011;43816;52.054;-9.494;2023-04-09T00:38:03;5.70;;;2.75;;
57615;SDS011;43816;52.054;-9.494;2023-04-09T00:38:13;4.63;;;2.37;;
57615;SDS011;43816;52.054;-9.494;2023-04-09T00:38:24;4.53;;;2.20;;
57615;SDS011;43816;52.054;-9.494;2023-04-09T00:38:34;4.10;;;2.10;;
57615;SDS011;43816;52.054;-9.494;2023-04-09T00:38:44;5.20;;;2.30;;
57615;SDS011;43816;52.054;-9.494;2023-04-09T00:38:55;5.20;;;2.40;;
57615;SDS011;43816;52.054;-9.494;2023-04-09T00:39:05;5.40;;;2.53;;
57615;SDS011;43816;52.054;-9.494;2023-04-09T00:39:15;4.50;;;2.30;;
57615;SDS011;43816;52.054;-9.494;2023-04-09T00:39:25;4.40;;;2.20;;
57615;SDS011;43816;52.054;-9.494;2023-04-09T00:39:36;4.25;;;2.17;;
57615;SDS011;43816;52.054;-9.494;2023-04-09T00:39:46;5.03;;;2.33;;
57615;SDS011;43816;52.054;-9.494;2023-04-09T00:39:56;5.37;;;2.50;;
57615;SDS011;43816;52.054;-9.494;2023-04-09T00:40:07;5.53;;;2.50;;
57615;SDS011;43816;52.054;-9.494;2023-04-09T00:40:17;5.25;;;2.38;;
57615;SDS011;43816;52.054;-9.494;2023-04-09T00:40:28;4.88;;;2.30;;
57615;SDS011;43816;52.054;-9.494;2023-04-09T00:40:38;5.00;;;2.30;;
57615;SDS011;43816;52.054;-9.494;2023-04-09T00:40:49;5.33;;;2.30;;
57615;SDS011;43816;52.054;-9.494;2023-04-09T00:41:00;5.68;;;2.22;;
57615;SDS011;43816;52.054;-9.494;2023-04-09T00:41:10;6.10;;;2.30;;
57615;SDS011;43816;52.054;-9.494;2023-04-09T00:41:21;6.30;;;2.45;;
57615;SDS011;43816;52.054;-9.494;2023-04-09T00:41:31;6.53;;;2.60;;
57615;SDS011;43816;52.054;-9.494;2023-04-09T00:41:41;6.87;;;2.63;;
57615;SDS011;43816;52.054;-9.494;2023-04-09T00:41:58;5.77;;;2.40;;
57615;SDS011;43816;52.054;-9.494;2023-04-09T00:42:10;5.68;;;2.20;;
57615;SDS011;43816;52.054;-9.494;2023-04-09T00:42:20;5.90;;;2.30;;
57615;SDS011;43816;52.054;-9.494;2023-04-09T00:42:31;5.37;;;2.33;;
57615;SDS011;43816;52.054;-9.494;2023-04-09T00:42:44;5.15;;;2.42;;
57615;SDS011;43816;52.054;-9.494;2023-04-09T00:42:55;5.82;;;2.50;;
57615;SDS011;43816;52.054;-9.494;2023-04-09T00:43:05;6.07;;;2.50;;
57615;SDS011;43816;52.054;-9.494;2023-04-09T00:43:16;6.53;;;2.60;;
57615;SDS011;43816;52.054;-9.494;2023-04-09T00:43:26;6.18;;;2.65;;
57615;SDS011;43816;52.054;-9.494;2023-04-09T00:43:37;6.07;;;2.60;;
57615;SDS011;43816;52.054;-9.494;2023-04-09T00:43:47;6.35;;;2.60;;
57615;SDS011;43816;52.054;-9.494;2023-04-09T00:43:58;5.63;;;2.43;;
57615;SDS011;43816;52.054;-9.494;2023-04-09T00:44:08;5.77;;;2.43;;
57615;SDS011;43816;52.054;-9.494;2023-04-09T00:44:18;4.65;;;2.33;;
57615;SDS011;43816;52.054;-9.494;2023-04-09T00:44:28;3.87;;;2.20;;
57615;SDS011;43816;52.054;-9.494;2023-04-09T00:44:39;3.70;;;2.20;;
57615;SDS011;43816;52.054;-9.494;2023-04-09T00:44:49;4.75;;;2.38;;
57615;SDS011;43816;52.054;-9.494;2023-04-09T00:44:59;5.37;;;2.57;;
57615;SDS011;43816;52.054;-9.494;2023-04-09T00:45:10;5.37;;;2.53;;
57615;SDS011;43816;52.054;-9.494;2023-04-09T00:45:20;4.73;;;2.50;;
57615;SDS011;43816;52.054;-9.494;2023-04-09T00:45:30;5.37;;;2.30;;
57615;SDS011;43816;52.054;-9.494;2023-04-09T00:45:41;5.18;;;2.30;;
57615;SDS011;43816;52.054;-9.494;2023-04-09T00:45:51;4.90;;;2.27;;
57615;SDS011;43816;52.054;-9.494;2023-04-09T00:46:02;6.00;;;2.43;;
57615;SDS011;43816;52.054;-9.494;2023-04-09T00:46:13;6.78;;;2.47;;
57615;SDS011;43816;52.054;-9.494;2023-04-09T00:46:23;7.37;;;2.47;;
57615;SDS011;43816;52.054;-9.494;2023-04-09T00:46:34;6.90;;;2.58;;
57615;SDS011;43816;52.054;-9.494;2023-04-09T00:46:44;7.03;;;2.60;;
57615;SDS011;43816;52.054;-9.494;2023-04-09T00:46:55;7.27;;;2.87;;
57615;SDS011;43816;52.054;-9.494;2023-04-09T00:47:08;6.57;;;2.70;;
57615;SDS011;43816;52.054;-9.494;2023-04-09T00:47:18;5.18;;;2.35;;
57615;SDS011;43816;52.054;-9.494;2023-04-09T00:47:29;5.00;;;2.43;;
57615;SDS011;43816;52.054;-9.494;2023-04-09T00:47:39;5.65;;;2.47;;
57615;SDS011;43816;52.054;-9.494;2023-04-09T00:47:49;6.03;;;2.60;;
57615;SDS011;43816;52.054;-9.494;2023-04-09T00:48:00;6.13;;;2.53;;
57615;SDS011;43816;52.054;-9.494;2023-04-09T00:48:11;6.18;;;2.55;;
57615;SDS011;43816;52.054;-9.494;2023-04-09T00:48:22;6.90;;;2.53;;
57615;SDS011;43816;52.054;-9.494;2023-04-09T00:48:33;6.75;;;2.50;;
57615;SDS011;43816;52.054;-9.494;2023-04-09T00:48:43;6.70;;;2.60;;
57615;SDS011;43816;52.054;-9.494;2023-04-09T00:48:53;6.70;;;2.60;;
57615;SDS011;43816;52.054;-9.494;2023-04-09T00:49:04;6.57;;;2.50;;
57615;SDS011;43816;52.054;-9.494;2023-04-09T00:49:14;6.27;;;2.40;;
57615;SDS011;43816;52.054;-9.494;2023-04-09T00:49:25;5.88;;;2.22;;
57615;SDS011;43816;52.054;-9.494;2023-04-09T00:49:36;5.55;;;2.28;;
57615;SDS011;43816;52.054;-9.494;2023-04-09T00:49:46;5.70;;;2.30;;
57615;SDS011;43816;52.054;-9.494;2023-04-09T00:49:56;5.53;;;2.35;;
57615;SDS011;43816;52.054;-9.494;2023-04-09T00:50:07;6.03;;;2.50;;
57615;SDS011;43816;52.054;-9.494;2023-04-09T00:50:18;5.32;;;2.55;;
57615;SDS011;43816;52.054;-9.494;2023-04-09T00:50:28;5.53;;;2.50;;
57615;SDS011;43816;52.054;-9.494;2023-04-09T00:50:39;5.57;;;2.58;;
57615;SDS011;43816;52.054;-9.494;2023-04-09T00:50:49;6.30;;;2.63;;
57615;SDS011;43816;52.054;-9.494;2023-04-09T00:50:59;7.00;;;2.78;;
57615;SDS011;43816;52.054;-9.494;2023-04-09T00:51:10;6.67;;;2.67;;
57615;SDS011;43816;52.054;-9.494;2023-04-09T00:51:20;5.85;;;2.60;;
57615;SDS011;43816;52.054;-9.494;2023-04-09T00:51:30;6.00;;;2.60;;
57615;SDS011;43816;52.054;-9.494;2023-04-09T00:51:41;6.37;;;2.60;;
57615;SDS011;43816;52.054;-9.494;2023-04-09T00:51:52;6.20;;;2.50;;
57615;SDS011;43816;52.054;-9.494;2023-04-09T00:52:03;5.23;;;2.40;;
57615;SDS011;43816;52.054;-9.494;2023-04-09T00:52:14;5.00;;;2.40;;
57615;SDS011;43816;52.054;-9.494;2023-04-09T00:52:24;5.30;;;2.42;;
57615;SDS011;43816;52.054;-9.494;2023-04-09T00:52:34;6.10;;;2.50;;
57615;SDS011;43816;52.054;-9.494;2023-04-09T00:52:45;6.78;;;2.65;;
57615;SDS011;43816;52.054;-9.494;2023-04-09T00:52:56;7.33;;;2.80;;
57615;SDS011;43816;52.054;-9.494;2023-04-09T00:53:06;6.57;;;2.63;;
57615;SDS011;43816;52.054;-9.494;2023-04-09T00:53:16;6.33;;;2.70;;
57615;SDS011;43816;52.054;-9.494;2023-04-09T00:53:27;7.10;;;2.80;;
57615;SDS011;43816;52.054;-9.494;2023-04-09T00:53:37;7.93;;;2.97;;
57615;SDS011;43816;52.054;-9.494;2023-04-09T00:53:48;7.10;;;2.70;;
57615;SDS011;43816;52.054;-9.494;2023-04-09T00:53:58;5.43;;;2.30;;
57615;SDS011;43816;52.054;-9.494;2023-04-09T00:54:09;4.82;;;2.17;;
57615;SDS011;43816;52.054;-9.494;2023-04-09T00:54:19;4.67;;;2.23;;
57615;SDS011;43816;52.054;-9.494;2023-04-09T00:54:29;5.13;;;2.37;;
57615;SDS011;43816;52.054;-9.494;2023-04-09T00:54:40;5.85;;;2.50;;
57615;SDS011;43816;52.054;-9.494;2023-04-09T00:54:50;5.67;;;2.40;;
57615;SDS011;43816;52.054;-9.494;2023-04-09T00:55:02;6.18;;;2.53;;
57615;SDS011;43816;52.054;-9.494;2023-04-09T00:55:14;6.28;;;2.58;;
57615;SDS011;43816;52.054;-9.494;2023-04-09T00:55:25;5.72;;;2.45;;
57615;SDS011;43816;52.054;-9.494;2023-04-09T00:55:35;5.93;;;2.50;;
57615;SDS011;43816;52.054;-9.494;2023-04-09T00:55:49;7.10;;;2.80;;
57615;SDS011;43816;52.054;-9.494;2023-04-09T00:55:59;7.27;;;2.80;;
57615;SDS011;43816;52.054;-9.494;2023-04-09T00:56:11;6.80;;;3.00;;
57615;SDS011;43816;52.054;-9.494;2023-04-09T00:56:22;6.88;;;2.97;;
57615;SDS011;43816;52.054;-9.494;2023-04-09T00:56:32;7.05;;;2.95;;
57615;SDS011;43816;52.054;-9.494;2023-04-09T00:56:43;7.10;;;2.72;;
57615;SDS011;43816;52.054;-9.494;2023-04-09T00:56:54;6.60;;;2.58;;
57615;SDS011;43816;52.054;-9.494;2023-04-09T00:57:06;6.35;;;2.50;;
57615;SDS011;43816;52.054;-9.494;2023-04-09T00:57:17;6.55;;;2.50;;
57615;SDS011;43816;52.054;-9.494;2023-04-09T00:57:28;6.82;;;2.55;;
57615;SDS011;43816;52.054;-9.494;2023-04-09T00:57:38;7.07;;;2.63;;
57615;SDS011;43816;52.054;-9.494;2023-04-09T00:57:48;7.07;;;2.72;;
57615;SDS011;43816;52.054;-9.494;2023-04-09T00:57:58;6.90;;;2.77;;
57615;SDS011;43816;52.054;-9.494;2023-04-09T00:58:09;7.00;;;2.90;;
57615;SDS011;43816;52.054;-9.494;2023-04-09T00:58:19;6.68;;;2.80;;
57615;SDS011;43816;52.054;-9.494;2023-04-09T00:58:30;7.20;;;2.90;;
57615;SDS011;43816;52.054;-9.494;2023-04-09T00:58:40;6.85;;;2.83;;
57615;SDS011;43816;52.054;-9.494;2023-04-09T00:58:50;6.93;;;2.90;;
57615;SDS011;43816;52.054;-9.494;2023-04-09T00:59:01;6.93;;;2.80;;
57615;SDS011;43816;52.054;-9.494;2023-04-09T00:59:11;7.60;;;2.70;;
57615;SDS011;43816;52.054;-9.494;2023-04-09T00:59:23;7.57;;;2.80;;
57615;SDS011;43816;52.054;-9.494;2023-04-09T00:59:34;6.90;;;2.78;;
57615;SDS011;43816;52.054;-9.494;2023-04-09T00:59:44;6.70;;;2.70;;
57615;SDS011;43816;52.054;-9.494;2023-04-09T00:59:55;6.63;;;2.65;;
57615;SDS011;43816;52.054;-9.494;2023-04-09T01:00:05;7.00;;;2.80;;
57615;SDS011;43816;52.054;-9.494;2023-04-09T01:00:16;6.93;;;2.80;;
57615;SDS011;43816;52.054;-9.494;2023-04-09T01:00:26;6.50;;;2.67;;
57615;SDS011;43816;52.054;-9.494;2023-04-09T01:00:37;5.57;;;2.40;;
57615;SDS011;43816;52.054;-9.494;2023-04-09T01:00:47;5.63;;;2.57;;
57615;SDS011;43816;52.054;-9.494;2023-04-09T01:00:58;5.50;;;2.58;;
57615;SDS011;43816;52.054;-9.494;2023-04-09T01:01:08;6.57;;;2.80;;
57615;SDS011;43816;52.054;-9.494;2023-04-09T01:01:18;8.57;;;2.93;;
57615;SDS011;43816;52.054;-9.494;2023-04-09T01:01:29;9.23;;;3.13;;
57615;SDS011;43816;52.054;-9.494;2023-04-09T01:01:39;8.37;;;2.90;;
57615;SDS011;43816;52.054;-9.494;2023-04-09T01:01:49;6.60;;;2.85;;
57615;SDS011;43816;52.054;-9.494;2023-04-09T01:02:00;6.20;;;2.70;;
57615;SDS011;43816;52.054;-9.494;2023-04-09T01:02:10;6.27;;;2.70;;